MQT25T EDDH-EDDC
Flight info
| Callsign | MQT25T |
|---|---|
| Flight time | 0h 45m |
| Altitude | 23000 |
| Route | RAMAR6G RAMAR Z998 NUSGU/N0433F270 Z998 OSKAN OSKAN4A |
| Aircraft | A320/M-SDE3FGHIRWY/LB1 |
Departure
| Time | 2026-05-01 10:07 |
|---|---|
| Airport | Hamburg Helmut Schmidt Airport (EDDH) |
Arrival
| Time | 2026-05-01 10:52 |
|---|---|
| Airport | Dresden Airport (EDDC) |
| Time | Latitude | Longitude | Altitude | Speed | Heading |
|---|---|---|---|---|---|
| 2026-05-01 10:04 | 53.63339 | 9.99889 | 50 ft | 0 kts | 246° |
| 2026-05-01 10:05 | 53.63324 | 9.99849 | 47 ft | 10 kts | 233° |
| 2026-05-01 10:05 | 53.63277 | 9.99733 | 49 ft | 13 kts | 251° |
| 2026-05-01 10:05 | 53.63285 | 9.99564 | 47 ft | 16 kts | 279° |
| 2026-05-01 10:05 | 53.63329 | 9.99373 | 47 ft | 21 kts | 313° |
| 2026-05-01 10:06 | 53.63543 | 9.99164 | 49 ft | 59 kts | 333° |
| 2026-05-01 10:06 | 53.63868 | 9.98886 | 51 ft | 95 kts | 333° |
| 2026-05-01 10:06 | 53.64604 | 9.98248 | 57 ft | 141 kts | 332° |
| 2026-05-01 10:06 | 53.65910 | 9.97100 | 532 ft | 166 kts | 332° |
| 2026-05-01 10:07 | 53.66953 | 9.96206 | 1281 ft | 170 kts | 333° |
| 2026-05-01 10:07 | 53.68010 | 9.95312 | 2092 ft | 173 kts | 333° |
| 2026-05-01 10:07 | 53.69177 | 9.94648 | 2764 ft | 185 kts | 353° |
| 2026-05-01 10:07 | 53.70079 | 9.94663 | 3066 ft | 199 kts | 4° |
| 2026-05-01 10:08 | 53.72947 | 9.95546 | 4641 ft | 219 kts | 27° |
| 2026-05-01 10:08 | 53.74156 | 9.97195 | 5373 ft | 232 kts | 52° |
| 2026-05-01 10:08 | 53.74978 | 9.99646 | 6143 ft | 249 kts | 64° |
| 2026-05-01 10:09 | 53.75763 | 10.02382 | 6958 ft | 267 kts | 65° |
| 2026-05-01 10:09 | 53.76581 | 10.05258 | 7925 ft | 276 kts | 65° |
| 2026-05-01 10:09 | 53.77423 | 10.08219 | 8932 ft | 282 kts | 65° |
| 2026-05-01 10:09 | 53.78274 | 10.11198 | 9926 ft | 287 kts | 65° |
| 2026-05-01 10:10 | 53.79152 | 10.14264 | 10817 ft | 296 kts | 65° |
| 2026-05-01 10:10 | 53.80077 | 10.17493 | 11423 ft | 314 kts | 65° |
| 2026-05-01 10:10 | 53.82093 | 10.24536 | 12500 ft | 351 kts | 65° |
| 2026-05-01 10:11 | 53.83182 | 10.28349 | 12974 ft | 368 kts | 65° |
| 2026-05-01 10:11 | 53.84079 | 10.32466 | 13622 ft | 377 kts | 77° |
| 2026-05-01 10:11 | 53.84350 | 10.36905 | 14384 ft | 382 kts | 92° |
| 2026-05-01 10:11 | 53.83968 | 10.41387 | 15138 ft | 387 kts | 102° |
| 2026-05-01 10:12 | 53.83381 | 10.45847 | 15888 ft | 390 kts | 102° |
| 2026-05-01 10:12 | 53.82764 | 10.50350 | 16577 ft | 395 kts | 103° |
| 2026-05-01 10:12 | 53.81489 | 10.59486 | 17936 ft | 403 kts | 103° |
| 2026-05-01 10:13 | 53.80842 | 10.64122 | 18581 ft | 407 kts | 103° |
| 2026-05-01 10:13 | 53.80080 | 10.68747 | 19227 ft | 410 kts | 110° |
| 2026-05-01 10:13 | 53.78797 | 10.72993 | 20288 ft | 402 kts | 121° |
| 2026-05-01 10:14 | 53.75776 | 10.81258 | 21103 ft | 420 kts | 121° |
| 2026-05-01 10:14 | 53.74220 | 10.85468 | 21651 ft | 424 kts | 121° |
| 2026-05-01 10:14 | 53.72594 | 10.89653 | 22203 ft | 428 kts | 126° |
| 2026-05-01 10:14 | 53.70624 | 10.93441 | 22741 ft | 433 kts | 135° |
| 2026-05-01 10:15 | 53.68287 | 10.96679 | 23266 ft | 437 kts | 144° |
| 2026-05-01 10:15 | 53.65700 | 10.99410 | 23755 ft | 441 kts | 148° |
| 2026-05-01 10:15 | 53.63067 | 11.02107 | 24208 ft | 444 kts | 148° |
| 2026-05-01 10:15 | 53.60416 | 11.04807 | 24647 ft | 447 kts | 148° |
| 2026-05-01 10:16 | 53.57744 | 11.07518 | 25052 ft | 449 kts | 148° |
| 2026-05-01 10:16 | 53.55055 | 11.10241 | 25439 ft | 452 kts | 148° |
| 2026-05-01 10:16 | 53.49645 | 11.15727 | 26157 ft | 457 kts | 148° |
| 2026-05-01 10:17 | 53.46954 | 11.18456 | 26483 ft | 459 kts | 148° |
| 2026-05-01 10:17 | 53.41455 | 11.24015 | 27357 ft | 457 kts | 148° |
| 2026-05-01 10:17 | 53.38767 | 11.26720 | 27769 ft | 456 kts | 148° |
| 2026-05-01 10:18 | 53.33331 | 11.32177 | 28513 ft | 455 kts | 148° |
| 2026-05-01 10:18 | 53.30620 | 11.34897 | 28875 ft | 454 kts | 148° |
| 2026-05-01 10:18 | 53.27920 | 11.37631 | 29238 ft | 453 kts | 146° |
| 2026-05-01 10:19 | 53.25411 | 11.40801 | 29635 ft | 451 kts | 137° |
| 2026-05-01 10:19 | 53.23101 | 11.44333 | 30034 ft | 450 kts | 136° |
| 2026-05-01 10:19 | 53.20802 | 11.47863 | 30479 ft | 449 kts | 136° |
| 2026-05-01 10:20 | 53.16204 | 11.54909 | 31304 ft | 449 kts | 136° |
| 2026-05-01 10:20 | 53.13907 | 11.58428 | 31411 ft | 448 kts | 136° |
| 2026-05-01 10:20 | 53.09331 | 11.65426 | 31438 ft | 446 kts | 136° |
| 2026-05-01 10:21 | 53.02468 | 11.75881 | 31440 ft | 446 kts | 136° |
| 2026-05-01 10:22 | 52.96208 | 11.87232 | 31438 ft | 445 kts | 126° |
| 2026-05-01 10:23 | 52.90595 | 11.99491 | 31448 ft | 445 kts | 126° |
| 2026-05-01 10:23 | 52.84974 | 12.11728 | 31441 ft | 446 kts | 126° |
| 2026-05-01 10:24 | 52.77463 | 12.28045 | 31444 ft | 446 kts | 126° |
| 2026-05-01 10:25 | 52.69483 | 12.43652 | 31444 ft | 448 kts | 140° |
| 2026-05-01 10:26 | 52.64241 | 12.49228 | 31437 ft | 450 kts | 147° |
| 2026-05-01 10:27 | 52.53490 | 12.59778 | 31441 ft | 450 kts | 148° |
| 2026-05-01 10:28 | 52.45461 | 12.67651 | 31445 ft | 450 kts | 148° |
| 2026-05-01 10:28 | 52.37382 | 12.75527 | 31446 ft | 450 kts | 148° |
| 2026-05-01 10:29 | 52.29294 | 12.83384 | 31445 ft | 451 kts | 148° |
| 2026-05-01 10:30 | 52.18519 | 12.93854 | 31450 ft | 450 kts | 147° |
| 2026-05-01 10:31 | 52.07745 | 13.04282 | 31448 ft | 445 kts | 148° |
| 2026-05-01 10:32 | 51.99909 | 13.11835 | 31357 ft | 437 kts | 148° |
| 2026-05-01 10:32 | 51.94665 | 13.16862 | 29809 ft | 437 kts | 147° |
| 2026-05-01 10:33 | 51.89468 | 13.21846 | 28218 ft | 436 kts | 147° |
| 2026-05-01 10:33 | 51.84332 | 13.26749 | 26678 ft | 419 kts | 147° |
| 2026-05-01 10:34 | 51.81852 | 13.29108 | 25955 ft | 409 kts | 147° |
| 2026-05-01 10:34 | 51.79423 | 13.31411 | 25263 ft | 401 kts | 147° |
| 2026-05-01 10:34 | 51.77043 | 13.33665 | 24585 ft | 393 kts | 147° |
| 2026-05-01 10:35 | 51.72329 | 13.38135 | 22573 ft | 396 kts | 147° |
| 2026-05-01 10:35 | 51.69962 | 13.40373 | 21633 ft | 393 kts | 147° |
| 2026-05-01 10:35 | 51.67613 | 13.42587 | 20743 ft | 389 kts | 147° |
| 2026-05-01 10:35 | 51.65292 | 13.44772 | 19892 ft | 384 kts | 147° |
| 2026-05-01 10:36 | 51.60729 | 13.49061 | 18184 ft | 375 kts | 147° |
| 2026-05-01 10:36 | 51.58490 | 13.51161 | 17358 ft | 370 kts | 147° |
| 2026-05-01 10:36 | 51.56277 | 13.53234 | 16535 ft | 366 kts | 147° |
| 2026-05-01 10:37 | 51.54093 | 13.55280 | 15717 ft | 361 kts | 147° |
| 2026-05-01 10:37 | 51.49800 | 13.59293 | 14099 ft | 353 kts | 147° |
| 2026-05-01 10:37 | 51.47643 | 13.61136 | 13314 ft | 350 kts | 154° |
| 2026-05-01 10:38 | 51.45341 | 13.62345 | 12530 ft | 348 kts | 165° |
| 2026-05-01 10:38 | 51.42948 | 13.62828 | 11746 ft | 347 kts | 177° |
| 2026-05-01 10:38 | 51.40592 | 13.62835 | 11554 ft | 327 kts | 178° |
| 2026-05-01 10:38 | 51.38378 | 13.62853 | 11344 ft | 311 kts | 177° |
| 2026-05-01 10:39 | 51.36241 | 13.62882 | 10921 ft | 305 kts | 177° |
| 2026-05-01 10:39 | 51.34129 | 13.62917 | 10431 ft | 302 kts | 177° |
| 2026-05-01 10:39 | 51.32036 | 13.62879 | 10059 ft | 299 kts | 186° |
| 2026-05-01 10:39 | 51.30041 | 13.61996 | 9830 ft | 297 kts | 197° |
| 2026-05-01 10:40 | 51.28033 | 13.61447 | 9555 ft | 291 kts | 177° |
| 2026-05-01 10:40 | 51.26026 | 13.61748 | 9200 ft | 290 kts | 172° |
| 2026-05-01 10:40 | 51.24052 | 13.62134 | 8874 ft | 289 kts | 171° |
| 2026-05-01 10:40 | 51.22059 | 13.62521 | 8591 ft | 288 kts | 175° |
| 2026-05-01 10:41 | 51.20084 | 13.62316 | 8486 ft | 281 kts | 191° |
| 2026-05-01 10:41 | 51.18256 | 13.61307 | 8319 ft | 277 kts | 207° |
| 2026-05-01 10:41 | 51.15269 | 13.57655 | 8029 ft | 266 kts | 220° |
| 2026-05-01 10:42 | 51.13873 | 13.55744 | 7885 ft | 264 kts | 220° |
| 2026-05-01 10:42 | 51.12473 | 13.53827 | 7742 ft | 264 kts | 220° |
| 2026-05-01 10:42 | 51.11081 | 13.51920 | 7595 ft | 265 kts | 220° |
| 2026-05-01 10:42 | 51.09690 | 13.50019 | 7457 ft | 263 kts | 220° |
| 2026-05-01 10:43 | 51.08302 | 13.48126 | 7314 ft | 263 kts | 220° |
| 2026-05-01 10:43 | 51.06920 | 13.46245 | 7148 ft | 261 kts | 220° |
| 2026-05-01 10:43 | 51.05544 | 13.44372 | 7020 ft | 260 kts | 220° |
| 2026-05-01 10:43 | 51.04170 | 13.42499 | 6873 ft | 259 kts | 220° |
| 2026-05-01 10:44 | 51.02801 | 13.40635 | 6722 ft | 259 kts | 220° |
| 2026-05-01 10:44 | 51.01432 | 13.38774 | 6596 ft | 258 kts | 220° |
| 2026-05-01 10:44 | 51.00070 | 13.36925 | 6440 ft | 258 kts | 220° |
| 2026-05-01 10:44 | 50.98635 | 13.35253 | 6313 ft | 257 kts | 205° |
| 2026-05-01 10:45 | 50.96924 | 13.34575 | 6177 ft | 254 kts | 179° |
| 2026-05-01 10:45 | 50.95225 | 13.35111 | 6018 ft | 249 kts | 154° |
| 2026-05-01 10:45 | 50.93854 | 13.36712 | 5853 ft | 244 kts | 130° |
| 2026-05-01 10:45 | 50.92745 | 13.38743 | 5700 ft | 242 kts | 129° |
| 2026-05-01 10:46 | 50.91733 | 13.40850 | 5554 ft | 240 kts | 117° |
| 2026-05-01 10:46 | 50.91259 | 13.43419 | 5100 ft | 248 kts | 91° |
| 2026-05-01 10:46 | 50.91567 | 13.46080 | 4848 ft | 247 kts | 65° |
| 2026-05-01 10:46 | 50.92562 | 13.48251 | 4650 ft | 244 kts | 42° |
| 2026-05-01 10:47 | 50.93829 | 13.49986 | 4535 ft | 238 kts | 40° |
| 2026-05-01 10:47 | 50.95076 | 13.51665 | 4430 ft | 232 kts | 40° |
| 2026-05-01 10:47 | 50.96285 | 13.53308 | 4326 ft | 225 kts | 40° |
| 2026-05-01 10:47 | 50.97454 | 13.54900 | 4232 ft | 219 kts | 40° |
| 2026-05-01 10:48 | 50.98596 | 13.56459 | 4154 ft | 213 kts | 40° |
| 2026-05-01 10:48 | 50.99698 | 13.57962 | 3986 ft | 211 kts | 40° |
| 2026-05-01 10:48 | 51.00830 | 13.59509 | 3738 ft | 212 kts | 40° |
| 2026-05-01 10:48 | 51.01931 | 13.61015 | 3479 ft | 205 kts | 40° |
| 2026-05-01 10:49 | 51.03000 | 13.62477 | 3209 ft | 200 kts | 40° |
| 2026-05-01 10:49 | 51.04033 | 13.63891 | 2975 ft | 191 kts | 40° |
| 2026-05-01 10:49 | 51.05014 | 13.65233 | 2699 ft | 186 kts | 40° |
| 2026-05-01 10:49 | 51.05967 | 13.66539 | 2460 ft | 175 kts | 40° |
| 2026-05-01 10:50 | 51.06862 | 13.67766 | 2242 ft | 163 kts | 39° |
| 2026-05-01 10:50 | 51.07697 | 13.68912 | 2033 ft | 155 kts | 40° |
| 2026-05-01 10:50 | 51.08492 | 13.70002 | 1820 ft | 148 kts | 40° |
| 2026-05-01 10:50 | 51.09256 | 13.71051 | 1623 ft | 143 kts | 40° |
| 2026-05-01 10:51 | 51.09994 | 13.72067 | 1441 ft | 139 kts | 41° |
| 2026-05-01 10:51 | 51.10728 | 13.73075 | 1254 ft | 140 kts | 40° |
| 2026-05-01 10:51 | 51.11464 | 13.74085 | 1068 ft | 139 kts | 39° |
| 2026-05-01 10:51 | 51.12201 | 13.75098 | 883 ft | 139 kts | 39° |
| 2026-05-01 10:52 | 51.12928 | 13.76101 | 749 ft | 136 kts | 40° |
| 2026-05-01 10:52 | 51.13369 | 13.76709 | 726 ft | 100 kts | 41° |
| 2026-05-01 10:52 | 51.13635 | 13.77079 | 724 ft | 36 kts | 41° |
| 2026-05-01 10:52 | 51.13815 | 13.77318 | 722 ft | 28 kts | 39° |
| 2026-05-01 10:53 | 51.13906 | 13.77457 | 721 ft | 8 kts | 72° |
| 2026-05-01 10:53 | 51.13878 | 13.77551 | 718 ft | 12 kts | 128° |
| 2026-05-01 10:53 | 51.13826 | 13.77647 | 713 ft | 0 kts | 130° |
| 2026-05-01 10:53 | 51.13823 | 13.77652 | 714 ft | 2 kts | 130° |
| 2026-05-01 10:54 | 51.13812 | 13.77674 | 713 ft | 3 kts | 130° |
| 2026-05-01 10:54 | 51.13789 | 13.77706 | 714 ft | 5 kts | 150° |
| 2026-05-01 10:54 | 51.13745 | 13.77700 | 716 ft | 8 kts | 207° |
| 2026-05-01 10:54 | 51.13701 | 13.77645 | 716 ft | 8 kts | 223° |
| 2026-05-01 10:55 | 51.13656 | 13.77579 | 714 ft | 9 kts | 222° |
| 2026-05-01 10:55 | 51.13606 | 13.77508 | 714 ft | 10 kts | 221° |
| 2026-05-01 10:55 | 51.13550 | 13.77433 | 717 ft | 11 kts | 219° |
| 2026-05-01 10:55 | 51.13489 | 13.77353 | 717 ft | 12 kts | 219° |
| 2026-05-01 10:56 | 51.13424 | 13.77265 | 715 ft | 13 kts | 221° |
| 2026-05-01 10:56 | 51.13355 | 13.77170 | 716 ft | 13 kts | 221° |
| 2026-05-01 10:56 | 51.13283 | 13.77070 | 717 ft | 14 kts | 221° |
| 2026-05-01 10:56 | 51.13206 | 13.76963 | 717 ft | 15 kts | 221° |
| 2026-05-01 10:57 | 51.13125 | 13.76851 | 715 ft | 16 kts | 221° |
| 2026-05-01 10:57 | 51.13047 | 13.76744 | 715 ft | 15 kts | 220° |
| 2026-05-01 10:57 | 51.12966 | 13.76634 | 713 ft | 15 kts | 221° |
| 2026-05-01 10:57 | 51.12898 | 13.76539 | 717 ft | 11 kts | 221° |
| 2026-05-01 10:58 | 51.12848 | 13.76471 | 717 ft | 6 kts | 217° |
| 2026-05-01 10:58 | 51.12808 | 13.76455 | 716 ft | 6 kts | 176° |
| 2026-05-01 10:58 | 51.12769 | 13.76497 | 716 ft | 7 kts | 133° |
| 2026-05-01 10:58 | 51.12733 | 13.76563 | 715 ft | 9 kts | 131° |
| 2026-05-01 10:59 | 51.12696 | 13.76613 | 716 ft | 5 kts | 165° |
| 2026-05-01 10:59 | 51.12663 | 13.76591 | 716 ft | 6 kts | 215° |
| 2026-05-01 10:59 | 51.12638 | 13.76556 | 716 ft | 1 kts | 220° |
| 2026-05-01 10:59 | 51.12632 | 13.76548 | 717 ft | 1 kts | 219° |
| 2026-05-01 11:00 | 51.12623 | 13.76537 | 712 ft | 1 kts | 220° |
| 2026-05-01 11:00 | 51.12622 | 13.76536 | 716 ft | 0 kts | 220° |